createdAt,value
2023-06-26T00:05:56.591Z,20.7
2023-06-26T00:17:56.689Z,20.5
2023-06-26T00:29:56.576Z,20.6
2023-06-26T00:41:56.607Z,20.6
2023-06-26T00:53:56.651Z,20.6
2023-06-26T01:05:56.570Z,20.4
2023-06-26T01:17:56.603Z,20.0
2023-06-26T01:29:56.560Z,19.7
2023-06-26T01:41:56.571Z,19.7
2023-06-26T01:53:56.566Z,19.4
2023-06-26T02:05:56.680Z,19.9
2023-06-26T02:17:56.707Z,20.2
2023-06-26T02:29:56.640Z,20.0
2023-06-26T02:41:56.578Z,19.8
2023-06-26T02:53:56.680Z,19.3
2023-06-26T03:05:56.659Z,19.4
2023-06-26T03:17:56.588Z,19.3
2023-06-26T03:29:56.559Z,19.2
2023-06-26T03:41:56.655Z,19.2
2023-06-26T03:53:56.672Z,18.5
2023-06-26T04:05:56.665Z,18.2
2023-06-26T04:17:56.760Z,18.1
2023-06-26T04:29:56.563Z,16.4
2023-06-26T04:41:56.562Z,16.4
2023-06-26T04:53:56.558Z,18.3
2023-06-26T05:05:56.693Z,19.0
2023-06-26T05:17:56.597Z,19.8
2023-06-26T05:29:56.564Z,19.7
2023-06-26T05:41:56.563Z,20.1
2023-06-26T05:53:56.729Z,21.4
2023-06-26T06:05:56.564Z,21.4
2023-06-26T06:17:56.631Z,22.3
2023-06-26T06:29:56.567Z,21.5
2023-06-26T06:41:56.566Z,21.8
2023-06-26T06:53:56.565Z,22.2
2023-06-26T07:05:56.616Z,22.4
2023-06-26T07:17:56.763Z,21.4
2023-06-26T07:29:56.555Z,22.7
2023-06-26T07:41:56.578Z,21.8
2023-06-26T07:53:56.691Z,21.9
2023-06-26T08:05:56.571Z,22.0
2023-06-26T08:17:56.640Z,21.2
2023-06-26T08:29:56.722Z,22.3
2023-06-26T08:41:56.576Z,22.1
2023-06-26T08:53:56.652Z,22.3
2023-06-26T09:05:56.669Z,22.8
2023-06-26T09:17:56.651Z,22.6
2023-06-26T09:29:56.738Z,23.1
2023-06-26T09:41:56.568Z,23.2
2023-06-26T09:53:56.668Z,22.8
2023-06-26T10:05:56.576Z,23.5
2023-06-26T10:17:56.609Z,23.1
2023-06-26T10:29:56.705Z,23.8
2023-06-26T10:42:05.420Z,22.8
2023-06-26T10:53:56.674Z,22.1
2023-06-26T11:05:56.564Z,23.1
2023-06-26T11:17:56.626Z,23.2
2023-06-26T11:29:56.730Z,23.1
2023-06-26T11:41:56.577Z,23.3
2023-06-26T11:53:56.652Z,23.3
2023-06-26T12:05:56.587Z,23.3
2023-06-26T12:17:56.621Z,23.0
2023-06-26T12:29:56.808Z,23.4
2023-06-26T12:41:56.678Z,23.1
2023-06-26T12:53:56.588Z,23.0
2023-06-26T13:05:56.696Z,22.9
2023-06-26T13:17:56.615Z,23.3
2023-06-26T13:29:56.959Z,22.8
2023-06-26T13:41:56.674Z,22.6
2023-06-26T13:53:56.668Z,22.8
2023-06-26T14:05:56.653Z,22.7
2023-06-26T14:17:56.656Z,23.1
2023-06-26T14:29:57.018Z,23.2
2023-06-26T14:41:56.807Z,22.8
2023-06-26T14:53:56.628Z,22.7
2023-06-26T15:05:56.685Z,22.7
2023-06-26T15:17:57.864Z,22.7
2023-06-26T15:29:57.071Z,22.4
2023-06-26T15:41:56.595Z,22.1
2023-06-26T15:53:56.576Z,22.0
2023-06-26T16:05:56.666Z,21.8
2023-06-26T16:17:56.612Z,21.9
2023-06-26T16:29:57.068Z,21.8
2023-06-26T16:41:56.671Z,21.4
2023-06-26T16:53:56.674Z,20.9
2023-06-26T17:05:56.693Z,20.9
2023-06-26T17:17:56.613Z,20.6
2023-06-26T17:29:57.189Z,20.3
2023-06-26T17:41:56.688Z,20.2
2023-06-26T17:53:56.672Z,20.1
2023-06-26T18:05:56.693Z,19.9
2023-06-26T18:17:56.735Z,19.8
2023-06-26T18:29:57.033Z,19.6
2023-06-26T18:41:56.754Z,19.4
2023-06-26T18:53:56.621Z,19.2
2023-06-26T19:05:56.724Z,19.0
2023-06-26T19:17:56.670Z,18.8
2023-06-26T19:29:57.242Z,18.7
2023-06-26T19:41:56.669Z,18.5
2023-06-26T19:53:56.661Z,18.2
2023-06-26T20:05:56.678Z,18.1
2023-06-26T20:17:56.677Z,17.8
2023-06-26T20:29:57.138Z,17.7
2023-06-26T20:41:56.653Z,17.5
2023-06-26T20:53:56.560Z,17.3
2023-06-26T21:05:56.670Z,17.1
2023-06-26T21:17:56.691Z,16.8
2023-06-26T21:29:57.137Z,16.5
2023-06-26T21:41:56.589Z,16.3
2023-06-26T21:53:56.581Z,16.2
2023-06-26T22:05:56.566Z,16.1
2023-06-26T22:17:56.655Z,15.9
2023-06-26T22:29:56.614Z,15.4
2023-06-26T22:41:56.567Z,15.2
2023-06-26T22:53:56.584Z,15.3
2023-06-26T23:05:56.583Z,15.3
2023-06-26T23:17:56.639Z,14.9
2023-06-26T23:29:56.585Z,15.0
2023-06-26T23:41:56.658Z,15.1
2023-06-26T23:53:56.978Z,15.0
